Time,TemperatureF,DewpointF,PressureIn,WindDirection,WindDirectionDegrees,WindSpeedMPH,WindSpeedGustMPH,Humidity,HourlyPrecipIn,Conditions,Clouds,dailyrainin,SoftwareType,DateUTC
2013-08-31 00:02:00,68.6,67.0,29.89,SSE,160,1.0,5.0,95,0.00,,,0.00,weatherlink.com 1.10,2013-08-31 04:02:00,
2013-08-31 00:17:00,68.5,67.0,29.89,South,173,0.0,6.0,95,0.00,,,0.00,weatherlink.com 1.10,2013-08-31 04:17:00,
2013-08-31 00:32:00,68.5,67.0,29.90,SE,135,0.0,5.0,95,0.00,,,0.00,weatherlink.com 1.10,2013-08-31 04:32:00,
2013-08-31 00:47:00,68.6,67.0,29.90,SSE,157,0.0,5.0,95,0.00,,,0.00,weatherlink.com 1.10,2013-08-31 04:47:00,
2013-08-31 01:02:00,68.8,67.0,29.89,East,97,0.0,3.0,95,0.00,,,0.00,weatherlink.com 1.10,2013-08-31 05:02:00,
2013-08-31 01:17:00,69.0,68.0,29.89,SSE,160,0.0,8.0,96,0.00,,,0.00,weatherlink.com 1.10,2013-08-31 05:17:00,
2013-08-31 01:33:00,69.2,68.0,29.88,SSE,165,0.0,3.0,95,0.00,,,0.00,weatherlink.com 1.10,2013-08-31 05:33:00,
2013-08-31 01:48:00,69.4,68.0,29.88,West,269,4.0,5.0,95,0.00,,,0.00,weatherlink.com 1.10,2013-08-31 05:48:00,
2013-08-31 02:03:00,69.6,68.0,29.88,West,279,8.0,11.0,95,0.00,,,0.00,weatherlink.com 1.10,2013-08-31 06:03:00,
2013-08-31 02:18:00,69.9,69.0,29.88,West,281,3.0,9.0,95,0.00,,,0.00,weatherlink.com 1.10,2013-08-31 06:18:00,
2013-08-31 02:33:00,70.1,68.0,29.88,NW,323,1.0,11.0,94,0.00,,,0.00,weatherlink.com 1.10,2013-08-31 06:33:00,
2013-08-31 02:48:00,70.1,68.0,29.88,West,274,1.0,14.0,94,0.00,,,0.00,weatherlink.com 1.10,2013-08-31 06:48:00,
2013-08-31 03:03:00,70.1,68.0,29.88,West,280,7.0,11.0,94,0.00,,,0.00,weatherlink.com 1.10,2013-08-31 07:03:00,
2013-08-31 03:18:00,70.1,68.0,29.88,SSW,192,4.0,14.0,94,0.00,,,0.00,weatherlink.com 1.10,2013-08-31 07:18:00,
2013-08-31 03:33:00,70.1,68.0,29.88,SE,135,3.0,8.0,94,0.00,,,0.00,weatherlink.com 1.10,2013-08-31 07:33:00,
2013-08-31 03:48:00,70.1,68.0,29.88,West,277,8.0,11.0,94,0.00,,,0.00,weatherlink.com 1.10,2013-08-31 07:48:00,
2013-08-31 04:03:00,70.2,69.0,29.88,West,275,6.0,10.0,94,0.00,,,0.00,weatherlink.com 1.10,2013-08-31 08:03:00,
2013-08-31 04:18:00,70.3,69.0,29.88,West,263,3.0,12.0,94,0.00,,,0.00,weatherlink.com 1.10,2013-08-31 08:18:00,
2013-08-31 04:33:00,70.4,69.0,29.87,South,186,4.0,13.0,94,0.00,,,0.00,weatherlink.com 1.10,2013-08-31 08:33:00,
2013-08-31 04:48:00,70.4,69.0,29.87,SE,142,0.0,12.0,94,0.00,,,0.00,weatherlink.com 1.10,2013-08-31 08:48:00,
2013-08-31 05:03:00,70.2,69.0,29.87,WNW,285,3.0,10.0,94,0.00,,,0.00,weatherlink.com 1.10,2013-08-31 09:03:00,
2013-08-31 05:18:00,70.2,69.0,29.87,WNW,285,4.0,12.0,94,0.00,,,0.00,weatherlink.com 1.10,2013-08-31 09:18:00,
2013-08-31 05:33:00,70.2,69.0,29.88,West,259,5.0,11.0,94,0.00,,,0.00,weatherlink.com 1.10,2013-08-31 09:33:00,
2013-08-31 05:48:00,70.2,69.0,29.88,SSW,200,3.0,15.0,94,0.00,,,0.00,weatherlink.com 1.10,2013-08-31 09:48:00,
2013-08-31 06:03:00,70.2,69.0,29.88,SSE,148,2.0,14.0,94,0.00,,,0.00,weatherlink.com 1.10,2013-08-31 10:03:00,
2013-08-31 06:18:00,70.3,69.0,29.88,WSW,237,12.0,14.0,94,0.00,,,0.00,weatherlink.com 1.10,2013-08-31 10:18:00,
2013-08-31 06:33:00,70.4,69.0,29.88,WNW,285,8.0,15.0,94,0.00,,,0.00,weatherlink.com 1.10,2013-08-31 10:33:00,
2013-08-31 06:48:00,70.5,69.0,29.88,West,267,4.0,10.0,94,0.00,,,0.00,weatherlink.com 1.10,2013-08-31 10:48:00,
2013-08-31 07:03:00,70.9,69.0,29.88,WSW,258,5.0,17.0,94,0.00,,,0.00,weatherlink.com 1.10,2013-08-31 11:03:00,
2013-08-31 07:18:00,71.4,69.0,29.88,WNW,283,7.0,15.0,93,0.00,,,0.00,weatherlink.com 1.10,2013-08-31 11:18:00,
2013-08-31 07:33:00,71.6,70.0,29.88,NNW,333,4.0,13.0,93,0.00,,,0.00,weatherlink.com 1.10,2013-08-31 11:33:00,
2013-08-31 07:48:00,71.6,70.0,29.88,SSW,201,4.0,8.0,93,0.00,,,0.00,weatherlink.com 1.10,2013-08-31 11:48:00,
2013-08-31 08:03:00,71.7,69.0,29.88,SE,139,0.0,14.0,92,0.00,,,0.00,weatherlink.com 1.10,2013-08-31 12:03:00,
2013-08-31 08:18:00,71.9,70.0,29.88,West,266,2.0,12.0,92,0.00,,,0.00,weatherlink.com 1.10,2013-08-31 12:18:00,
2013-08-31 08:33:00,72.1,70.0,29.88,WNW,291,4.0,13.0,92,0.00,,,0.00,weatherlink.com 1.10,2013-08-31 12:33:00,
2013-08-31 08:48:00,72.4,70.0,29.89,NE,45,1.0,9.0,91,0.00,,,0.00,weatherlink.com 1.10,2013-08-31 12:48:00,
2013-08-31 09:03:00,72.9,70.0,29.89,WNW,285,5.0,18.0,91,0.00,,,0.00,weatherlink.com 1.10,2013-08-31 13:03:00,
2013-08-31 09:18:00,74.1,71.0,29.89,West,259,10.0,13.0,90,0.00,,,0.00,weatherlink.com 1.10,2013-08-31 13:18:00,
2013-08-31 09:33:00,74.8,71.0,29.90,SW,224,6.0,12.0,87,0.00,,,0.00,weatherlink.com 1.10,2013-08-31 13:33:00,
2013-08-31 09:48:00,74.4,71.0,29.89,WSW,246,4.0,15.0,88,0.00,,,0.00,weatherlink.com 1.10,2013-08-31 13:48:00,
2013-08-31 10:03:00,74.6,71.0,29.90,WSW,238,5.0,8.0,87,0.00,,,0.00,weatherlink.com 1.10,2013-08-31 14:03:00,
2013-08-31 10:18:00,74.1,70.0,29.90,WNW,289,3.0,13.0,87,0.00,,,0.00,weatherlink.com 1.10,2013-08-31 14:18:00,
2013-08-31 10:33:00,74.2,71.0,29.90,North,8,2.0,10.0,88,0.00,,,0.00,weatherlink.com 1.10,2013-08-31 14:33:00,
2013-08-31 10:49:00,76.0,72.0,29.90,West,280,9.0,11.0,86,0.00,,,0.00,weatherlink.com 1.10,2013-08-31 14:49:00,
2013-08-31 11:04:00,76.5,71.0,29.90,ESE,123,1.0,14.0,84,0.00,,,0.00,weatherlink.com 1.10,2013-08-31 15:04:00,
2013-08-31 11:19:00,76.2,71.0,29.90,SSW,192,4.0,11.0,85,0.00,,,0.00,weatherlink.com 1.10,2013-08-31 15:19:00,
2013-08-31 11:34:00,75.5,71.0,29.89,NNE,30,0.0,15.0,85,0.00,,,0.00,weatherlink.com 1.10,2013-08-31 15:34:00,
2013-08-31 11:49:00,75.3,71.0,29.89,SW,224,5.0,15.0,86,0.00,,,0.00,weatherlink.com 1.10,2013-08-31 15:49:00,
2013-08-31 12:04:00,74.1,70.0,29.89,WSW,248,2.0,11.0,87,0.00,,,0.00,weatherlink.com 1.10,2013-08-31 16:04:00,
2013-08-31 12:19:00,73.0,69.0,29.90,SW,233,7.0,12.0,88,0.00,,,0.00,weatherlink.com 1.10,2013-08-31 16:19:00,
2013-08-31 12:34:00,73.0,70.0,29.90,SSW,195,5.0,11.0,90,0.00,,,0.00,weatherlink.com 1.10,2013-08-31 16:34:00,
2013-08-31 12:49:00,73.4,70.0,29.89,WSW,249,2.0,14.0,89,0.00,,,0.00,weatherlink.com 1.10,2013-08-31 16:49:00,
2013-08-31 13:04:00,73.7,70.0,29.89,WSW,258,3.0,10.0,89,0.00,,,0.00,weatherlink.com 1.10,2013-08-31 17:04:00,
2013-08-31 13:19:00,74.1,71.0,29.89,SW,229,1.0,8.0,89,0.00,,,0.00,weatherlink.com 1.10,2013-08-31 17:19:00,
2013-08-31 13:34:00,73.9,70.0,29.89,ESE,122,3.0,11.0,88,0.00,,,0.00,weatherlink.com 1.10,2013-08-31 17:34:00,
2013-08-31 13:49:00,73.9,71.0,29.89,SW,231,1.0,11.0,89,0.00,,,0.00,weatherlink.com 1.10,2013-08-31 17:49:00,
2013-08-31 14:04:00,74.0,71.0,29.89,West,275,0.0,12.0,89,0.00,,,0.00,weatherlink.com 1.10,2013-08-31 18:04:00,
2013-08-31 14:19:00,74.2,71.0,29.89,SW,232,4.0,11.0,90,0.00,,,0.00,weatherlink.com 1.10,2013-08-31 18:19:00,
2013-08-31 14:34:00,74.2,71.0,29.88,WNW,292,1.0,13.0,90,0.00,,,0.00,weatherlink.com 1.10,2013-08-31 18:34:00,
2013-08-31 14:49:00,74.1,71.0,29.88,South,186,0.0,12.0,90,0.00,,,0.00,weatherlink.com 1.10,2013-08-31 18:49:00,
2013-08-31 15:05:00,73.8,71.0,29.88,SSW,198,1.0,10.0,90,0.00,,,0.00,weatherlink.com 1.10,2013-08-31 19:05:00,
2013-08-31 15:19:00,73.7,71.0,29.88,SW,219,0.0,11.0,91,0.00,,,0.00,weatherlink.com 1.10,2013-08-31 19:19:00,
2013-08-31 15:34:00,73.8,71.0,29.88,SSE,150,1.0,6.0,90,0.00,,,0.00,weatherlink.com 1.10,2013-08-31 19:34:00,
2013-08-31 15:49:00,73.6,71.0,29.88,SSW,209,0.0,7.0,91,0.00,,,0.00,weatherlink.com 1.10,2013-08-31 19:49:00,
2013-08-31 16:04:00,73.9,71.0,29.88,SSE,157,2.0,5.0,90,0.00,,,0.00,weatherlink.com 1.10,2013-08-31 20:04:00,
2013-08-31 16:19:00,74.5,72.0,29.88,SSW,208,2.0,5.0,90,0.00,,,0.00,weatherlink.com 1.10,2013-08-31 20:19:00,
2013-08-31 16:34:00,75.1,72.0,29.88,SE,132,2.0,6.0,90,0.00,,,0.00,weatherlink.com 1.10,2013-08-31 20:34:00,
2013-08-31 16:49:00,75.0,71.0,29.88,SE,141,1.0,7.0,88,0.00,,,0.00,weatherlink.com 1.10,2013-08-31 20:49:00,
2013-08-31 17:04:00,74.5,71.0,29.88,SW,219,3.0,11.0,89,0.00,,,0.00,weatherlink.com 1.10,2013-08-31 21:04:00,
2013-08-31 17:19:00,73.6,71.0,29.87,SSE,153,0.0,7.0,90,0.00,,,0.00,weatherlink.com 1.10,2013-08-31 21:19:00,
2013-08-31 17:34:00,73.4,71.0,29.87,South,171,0.0,8.0,91,0.00,,,0.00,weatherlink.com 1.10,2013-08-31 21:34:00,
2013-08-31 17:49:00,73.1,70.0,29.87,SSE,156,1.0,5.0,91,0.00,,,0.00,weatherlink.com 1.10,2013-08-31 21:49:00,
2013-08-31 18:04:00,73.0,70.0,29.87,South,182,0.0,7.0,91,0.00,,,0.00,weatherlink.com 1.10,2013-08-31 22:04:00,
2013-08-31 18:19:00,72.8,70.0,29.87,ESE,110,2.0,4.0,91,0.00,,,0.00,weatherlink.com 1.10,2013-08-31 22:19:00,
2013-08-31 18:34:00,72.5,70.0,29.87,South,173,0.0,6.0,91,0.00,,,0.00,weatherlink.com 1.10,2013-08-31 22:34:00,
2013-08-31 18:49:00,71.8,69.0,29.87,SSW,210,2.0,8.0,92,0.00,,,0.00,weatherlink.com 1.10,2013-08-31 22:49:00,
2013-08-31 19:04:00,71.3,69.0,29.87,SE,140,1.0,5.0,93,0.00,,,0.00,weatherlink.com 1.10,2013-08-31 23:04:00,
2013-08-31 19:19:00,71.0,69.0,29.88,SSW,207,1.0,4.0,94,0.00,,,0.00,weatherlink.com 1.10,2013-08-31 23:19:00,
2013-08-31 19:34:00,70.9,69.0,29.88,SSW,205,0.0,6.0,94,0.00,,,0.00,weatherlink.com 1.10,2013-08-31 23:34:00,
2013-08-31 19:49:00,70.8,69.0,29.88,SSW,202,1.0,5.0,94,0.00,,,0.00,weatherlink.com 1.10,2013-08-31 23:49:00,
2013-08-31 20:04:00,70.8,69.0,29.88,WNW,283,1.0,6.0,94,0.00,,,0.00,weatherlink.com 1.10,2013-09-01 00:04:00,
2013-08-31 20:19:00,70.9,69.0,29.88,SSE,147,1.0,6.0,94,0.00,,,0.00,weatherlink.com 1.10,2013-09-01 00:19:00,
2013-08-31 20:34:00,70.8,69.0,29.88,SW,232,1.0,3.0,93,0.00,,,0.00,weatherlink.com 1.10,2013-09-01 00:34:00,
2013-08-31 20:49:00,70.6,69.0,29.88,South,170,2.0,4.0,94,0.00,,,0.00,weatherlink.com 1.10,2013-09-01 00:49:00,
2013-08-31 21:04:00,70.6,69.0,29.89,West,264,1.0,5.0,94,0.00,,,0.00,weatherlink.com 1.10,2013-09-01 01:04:00,
2013-08-31 21:19:00,70.6,69.0,29.89,SW,227,1.0,6.0,94,0.00,,,0.00,weatherlink.com 1.10,2013-09-01 01:19:00,
2013-08-31 21:34:00,70.7,69.0,29.89,WNW,300,2.0,5.0,94,0.00,,,0.00,weatherlink.com 1.10,2013-09-01 01:34:00,
2013-08-31 21:49:00,70.9,69.0,29.90,WSW,252,1.0,8.0,94,0.00,,,0.00,weatherlink.com 1.10,2013-09-01 01:49:00,
2013-08-31 22:04:00,71.3,70.0,29.90,South,183,1.0,9.0,94,0.00,,,0.00,weatherlink.com 1.10,2013-09-01 02:04:00,
2013-08-31 22:19:00,71.6,70.0,29.90,SSE,151,0.0,6.0,93,0.00,,,0.00,weatherlink.com 1.10,2013-09-01 02:19:00,
2013-08-31 22:34:00,71.5,69.0,29.91,South,175,0.0,5.0,93,0.00,,,0.00,weatherlink.com 1.10,2013-09-01 02:34:00,
2013-08-31 22:49:00,71.3,69.0,29.90,SSE,150,2.0,4.0,93,0.00,,,0.00,weatherlink.com 1.10,2013-09-01 02:49:00,
2013-08-31 23:04:00,71.0,69.0,29.90,WSW,255,2.0,7.0,94,0.00,,,0.00,weatherlink.com 1.10,2013-09-01 03:04:00,
2013-08-31 23:19:00,70.7,69.0,29.89,SW,232,2.0,6.0,94,0.00,,,0.00,weatherlink.com 1.10,2013-09-01 03:19:00,
2013-08-31 23:34:00,70.5,69.0,29.89,SSW,196,3.0,6.0,94,0.00,,,0.00,weatherlink.com 1.10,2013-09-01 03:34:00,
2013-08-31 23:49:00,70.4,69.0,29.89,East,96,0.0,9.0,95,0.00,,,0.00,weatherlink.com 1.10,2013-09-01 03:49:00,